sensor_id;sensor_type;location;lat;lon;timestamp;pressure;altitude;pressure_sealevel;temperature;humidity
52745;BME280;38637;49.984;20.426;2022-11-21T00:02:25;98599.97;;;1.61;73.50
52745;BME280;38637;49.984;20.426;2022-11-21T00:04:50;98601.47;;;1.57;73.92
52745;BME280;38637;49.984;20.426;2022-11-21T00:07:15;98600.66;;;1.56;73.90
52745;BME280;38637;49.984;20.426;2022-11-21T00:09:41;98594.44;;;1.56;73.74
52745;BME280;38637;49.984;20.426;2022-11-21T00:12:06;98597.97;;;1.56;73.86
52745;BME280;38637;49.984;20.426;2022-11-21T00:14:32;98589.75;;;1.51;73.84
52745;BME280;38637;49.984;20.426;2022-11-21T00:16:58;98584.81;;;1.48;73.99
52745;BME280;38637;49.984;20.426;2022-11-21T00:19:23;98588.31;;;1.49;73.70
52745;BME280;38637;49.984;20.426;2022-11-21T00:21:48;98591.44;;;1.46;73.83
52745;BME280;38637;49.984;20.426;2022-11-21T00:24:14;98580.97;;;1.37;73.81
52745;BME280;38637;49.984;20.426;2022-11-21T00:26:39;98588.00;;;1.38;73.64
52745;BME280;38637;49.984;20.426;2022-11-21T00:29:04;98595.03;;;1.40;73.71
52745;BME280;38637;49.984;20.426;2022-11-21T00:31:30;98590.91;;;1.37;73.37
52745;BME280;38637;49.984;20.426;2022-11-21T00:33:55;98588.81;;;1.39;73.34
52745;BME280;38637;49.984;20.426;2022-11-21T00:36:20;98597.50;;;1.41;73.49
52745;BME280;38637;49.984;20.426;2022-11-21T00:38:46;98605.16;;;1.37;73.15
52745;BME280;38637;49.984;20.426;2022-11-21T00:41:11;98584.78;;;1.30;73.18
52745;BME280;38637;49.984;20.426;2022-11-21T00:43:37;98590.09;;;1.36;73.18
52745;BME280;38637;49.984;20.426;2022-11-21T00:46:02;98586.13;;;1.39;73.31
52745;BME280;38637;49.984;20.426;2022-11-21T00:48:29;98592.56;;;1.38;73.20
52745;BME280;38637;49.984;20.426;2022-11-21T00:50:55;98594.66;;;1.36;73.08
52745;BME280;38637;49.984;20.426;2022-11-21T00:53:20;98585.97;;;1.34;73.33
52745;BME280;38637;49.984;20.426;2022-11-21T00:55:46;98584.34;;;1.33;73.13
52745;BME280;38637;49.984;20.426;2022-11-21T00:58:11;98567.09;;;1.15;73.16
52745;BME280;38637;49.984;20.426;2022-11-21T01:00:36;98578.66;;;1.23;73.22
52745;BME280;38637;49.984;20.426;2022-11-21T01:03:01;98593.72;;;1.24;73.15
52745;BME280;38637;49.984;20.426;2022-11-21T01:05:27;98587.28;;;1.25;73.40
52745;BME280;38637;49.984;20.426;2022-11-21T01:07:52;98578.66;;;1.23;72.99
52745;BME280;38637;49.984;20.426;2022-11-21T01:10:18;98590.22;;;1.23;73.14
52745;BME280;38637;49.984;20.426;2022-11-21T01:12:43;98588.34;;;1.24;73.26
52745;BME280;38637;49.984;20.426;2022-11-21T01:15:09;98587.28;;;1.25;72.99
52745;BME280;38637;49.984;20.426;2022-11-21T01:17:35;98582.72;;;1.25;72.87
52745;BME280;38637;49.984;20.426;2022-11-21T01:20:00;98580.88;;;1.26;72.54
52745;BME280;38637;49.984;20.426;2022-11-21T01:22:25;98581.25;;;1.29;72.80
52745;BME280;38637;49.984;20.426;2022-11-21T01:24:50;98583.34;;;1.27;72.09
52745;BME280;38637;49.984;20.426;2022-11-21T01:27:16;98577.97;;;1.27;72.20
52745;BME280;38637;49.984;20.426;2022-11-21T01:29:41;98577.97;;;1.27;71.81
52745;BME280;38637;49.984;20.426;2022-11-21T01:32:06;98587.03;;;1.33;71.97
52745;BME280;38637;49.984;20.426;2022-11-21T01:34:32;98581.25;;;1.29;71.45
52745;BME280;38637;49.984;20.426;2022-11-21T01:36:57;98583.13;;;1.29;71.45
52745;BME280;38637;49.984;20.426;2022-11-21T01:39:23;98573.63;;;1.26;71.57
52745;BME280;38637;49.984;20.426;2022-11-21T01:41:48;98565.19;;;1.23;71.37
52745;BME280;38637;49.984;20.426;2022-11-21T01:44:18;98574.66;;;1.25;70.68
52745;BME280;38637;49.984;20.426;2022-11-21T01:46:44;98587.09;;;1.26;71.52
52745;BME280;38637;49.984;20.426;2022-11-21T01:49:14;98574.72;;;1.19;71.18
52745;BME280;38637;49.984;20.426;2022-11-21T01:51:49;98586.72;;;1.23;71.28
52745;BME280;38637;49.984;20.426;2022-11-21T01:54:32;98581.09;;;1.24;71.22
52745;BME280;38637;49.984;20.426;2022-11-21T01:57:14;98574.09;;;1.23;71.17
52745;BME280;38637;49.984;20.426;2022-11-21T02:02:16;98584.47;;;1.20;70.84
52745;BME280;38637;49.984;20.426;2022-11-21T02:04:43;98575.47;;;1.07;70.58
52745;BME280;38637;49.984;20.426;2022-11-21T02:07:10;98578.75;;;1.09;70.33
52745;BME280;38637;49.984;20.426;2022-11-21T02:09:38;98583.13;;;1.04;70.47
52745;BME280;38637;49.984;20.426;2022-11-21T02:12:08;98579.41;;;1.05;70.49
52745;BME280;38637;49.984;20.426;2022-11-21T02:14:36;98547.16;;;0.80;70.01
52745;BME280;38637;49.984;20.426;2022-11-21T02:17:04;98579.25;;;1.00;70.48
52745;BME280;38637;49.984;20.426;2022-11-21T02:19:54;98558.59;;;0.94;70.52
52745;BME280;38637;49.984;20.426;2022-11-21T02:22:30;98568.31;;;0.95;70.75
52745;BME280;38637;49.984;20.426;2022-11-21T02:25:14;98568.38;;;0.88;70.57
52745;BME280;38637;49.984;20.426;2022-11-21T02:27:41;98576.81;;;0.91;70.44
52745;BME280;38637;49.984;20.426;2022-11-21T02:30:08;98561.97;;;0.89;70.06
52745;BME280;38637;49.984;20.426;2022-11-21T02:32:36;98557.25;;;0.84;70.29
52745;BME280;38637;49.984;20.426;2022-11-21T02:35:02;98554.56;;;0.84;70.02
52745;BME280;38637;49.984;20.426;2022-11-21T02:37:28;98549.22;;;0.78;69.58
52745;BME280;38637;49.984;20.426;2022-11-21T02:39:54;98548.41;;;0.77;69.87
52745;BME280;38637;49.984;20.426;2022-11-21T02:42:30;98551.75;;;0.73;70.21
52745;BME280;38637;49.984;20.426;2022-11-21T02:45:20;98544.28;;;0.75;69.98
52745;BME280;38637;49.984;20.426;2022-11-21T02:47:48;98529.47;;;0.65;69.84
52745;BME280;38637;49.984;20.426;2022-11-21T02:50:19;98542.66;;;0.74;69.54
52745;BME280;38637;49.984;20.426;2022-11-21T02:52:48;98544.72;;;0.72;69.32
52745;BME280;38637;49.984;20.426;2022-11-21T02:55:13;98541.88;;;0.66;69.68
52745;BME280;38637;49.984;20.426;2022-11-21T02:57:40;98531.78;;;0.62;69.54
52745;BME280;38637;49.984;20.426;2022-11-21T03:00:07;98542.53;;;0.62;69.65
52745;BME280;38637;49.984;20.426;2022-11-21T03:02:33;98543.97;;;0.64;69.43
52745;BME280;38637;49.984;20.426;2022-11-21T03:04:58;98540.66;;;0.62;69.44
52745;BME280;38637;49.984;20.426;2022-11-21T03:07:23;98548.94;;;0.61;69.34
52745;BME280;38637;49.984;20.426;2022-11-21T03:09:49;98547.28;;;0.60;69.30
52745;BME280;38637;49.984;20.426;2022-11-21T03:12:14;98546.72;;;0.51;69.15
52745;BME280;38637;49.984;20.426;2022-11-21T03:14:39;98540.34;;;0.45;68.71
52745;BME280;38637;49.984;20.426;2022-11-21T03:17:05;98550.66;;;0.49;68.91
52745;BME280;38637;49.984;20.426;2022-11-21T03:19:30;98521.84;;;0.37;68.95
52745;BME280;38637;49.984;20.426;2022-11-21T03:21:55;98538.34;;;0.41;68.67
52745;BME280;38637;49.984;20.426;2022-11-21T03:24:21;98546.34;;;0.48;68.76
52745;BME280;38637;49.984;20.426;2022-11-21T03:26:46;98544.09;;;0.44;68.38
52745;BME280;38637;49.984;20.426;2022-11-21T03:29:12;98523.13;;;0.28;68.61
52745;BME280;38637;49.984;20.426;2022-11-21T03:31:38;98537.13;;;0.37;68.89
52745;BME280;38637;49.984;20.426;2022-11-21T03:34:03;98536.94;;;0.32;68.64
52745;BME280;38637;49.984;20.426;2022-11-21T03:36:28;98527.84;;;0.33;68.71
52745;BME280;38637;49.984;20.426;2022-11-21T03:38:55;98541.84;;;0.41;69.01
52745;BME280;38637;49.984;20.426;2022-11-21T03:41:24;98535.41;;;0.42;69.18
52745;BME280;38637;49.984;20.426;2022-11-21T03:44:01;98539.59;;;0.38;69.31
52745;BME280;38637;49.984;20.426;2022-11-21T03:46:28;98546.22;;;0.36;68.47
52745;BME280;38637;49.984;20.426;2022-11-21T03:48:54;98545.22;;;0.30;68.22
52745;BME280;38637;49.984;20.426;2022-11-21T03:51:20;98541.75;;;0.23;67.85
52745;BME280;38637;49.984;20.426;2022-11-21T03:53:45;98540.31;;;0.20;68.12
52745;BME280;38637;49.984;20.426;2022-11-21T03:56:11;98535.59;;;0.16;68.05
52745;BME280;38637;49.984;20.426;2022-11-21T03:58:36;98537.91;;;0.12;67.89
52745;BME280;38637;49.984;20.426;2022-11-21T04:01:02;98500.22;;;-0.13;67.37
52745;BME280;38637;49.984;20.426;2022-11-21T04:03:28;98527.59;;;0.09;67.44
52745;BME280;38637;49.984;20.426;2022-11-21T04:05:53;98525.53;;;0.05;67.25
52745;BME280;38637;49.984;20.426;2022-11-21T04:08:18;98529.66;;;0.07;67.38
52745;BME280;38637;49.984;20.426;2022-11-21T04:10:48;98530.69;;;0.06;67.19
52745;BME280;38637;49.984;20.426;2022-11-21T04:13:13;98535.84;;;0.08;67.18
52745;BME280;38637;49.984;20.426;2022-11-21T04:15:41;98522.84;;;0.05;66.98
52745;BME280;38637;49.984;20.426;2022-11-21T04:18:07;98530.28;;;0.03;66.50
52745;BME280;38637;49.984;20.426;2022-11-21T04:20:33;98534.63;;;-0.03;67.05
52745;BME280;38637;49.984;20.426;2022-11-21T04:22:58;98531.56;;;-0.07;67.04
52745;BME280;38637;49.984;20.426;2022-11-21T04:25:23;98509.94;;;-0.18;66.70
52745;BME280;38637;49.984;20.426;2022-11-21T04:27:49;98527.03;;;-0.06;66.55
52745;BME280;38637;49.984;20.426;2022-11-21T04:30:14;98520.00;;;-0.07;66.55
52745;BME280;38637;49.984;20.426;2022-11-21T04:32:40;98531.56;;;-0.07;66.93
52745;BME280;38637;49.984;20.426;2022-11-21T04:35:05;98534.25;;;-0.07;66.96
52745;BME280;38637;49.984;20.426;2022-11-21T04:37:31;98535.50;;;-0.03;66.32
52745;BME280;38637;49.984;20.426;2022-11-21T04:39:56;98527.03;;;-0.06;66.15
52745;BME280;38637;49.984;20.426;2022-11-21T04:42:23;98526.84;;;-0.11;66.26
52745;BME280;38637;49.984;20.426;2022-11-21T04:44:48;98530.78;;;-0.14;67.19
52745;BME280;38637;49.984;20.426;2022-11-21T04:47:13;98522.53;;;-0.19;67.69
52745;BME280;38637;49.984;20.426;2022-11-21T04:49:39;98524.22;;;-0.18;67.19
52745;BME280;38637;49.984;20.426;2022-11-21T04:52:04;98533.50;;;-0.20;67.38
52745;BME280;38637;49.984;20.426;2022-11-21T04:54:30;98525.66;;;-0.22;67.39
52745;BME280;38637;49.984;20.426;2022-11-21T04:56:55;98521.72;;;-0.19;67.56
52745;BME280;38637;49.984;20.426;2022-11-21T04:59:20;98518.66;;;-0.23;67.00
52745;BME280;38637;49.984;20.426;2022-11-21T05:01:45;98517.00;;;-0.24;67.12
52745;BME280;38637;49.984;20.426;2022-11-21T05:04:11;98512.47;;;-0.24;67.18
52745;BME280;38637;49.984;20.426;2022-11-21T05:06:36;98511.84;;;-0.26;67.50
52745;BME280;38637;49.984;20.426;2022-11-21T05:09:02;98518.03;;;-0.25;66.76
52745;BME280;38637;49.984;20.426;2022-11-21T05:11:27;98514.13;;;-0.29;66.92
52745;BME280;38637;49.984;20.426;2022-11-21T05:14:11;98509.38;;;-0.27;66.09
52745;BME280;38637;49.984;20.426;2022-11-21T05:16:36;98505.66;;;-0.26;66.70
52745;BME280;38637;49.984;20.426;2022-11-21T05:19:02;98511.84;;;-0.26;66.36
52745;BME280;38637;49.984;20.426;2022-11-21T05:21:27;98506.47;;;-0.26;66.11
52745;BME280;38637;49.984;20.426;2022-11-21T05:23:52;98499.47;;;-0.27;66.03
52745;BME280;38637;49.984;20.426;2022-11-21T05:26:18;98504.44;;;-0.30;66.28
52745;BME280;38637;49.984;20.426;2022-11-21T05:28:43;98438.16;;;-0.68;66.39
52745;BME280;38637;49.984;20.426;2022-11-21T05:31:08;98484.84;;;-0.37;66.78
52745;BME280;38637;49.984;20.426;2022-11-21T05:33:34;98480.53;;;-0.38;66.79
52745;BME280;38637;49.984;20.426;2022-11-21T05:35:59;98482.19;;;-0.37;66.12
52745;BME280;38637;49.984;20.426;2022-11-21T05:38:24;98473.69;;;-0.34;66.04
52745;BME280;38637;49.984;20.426;2022-11-21T05:40:52;98463.16;;;-0.29;66.45
52745;BME280;38637;49.984;20.426;2022-11-21T05:43:18;98450.41;;;-0.40;65.79
52745;BME280;38637;49.984;20.426;2022-11-21T05:46:01;98449.78;;;-0.36;66.43
52745;BME280;38637;49.984;20.426;2022-11-21T05:48:27;98450.00;;;-0.37;66.00
52745;BME280;38637;49.984;20.426;2022-11-21T05:50:52;98450.81;;;-0.30;66.05
52745;BME280;38637;49.984;20.426;2022-11-21T05:53:17;98436.97;;;-0.34;65.83
52745;BME280;38637;49.984;20.426;2022-11-21T05:55:43;98461.88;;;-0.20;66.13
52745;BME280;38637;49.984;20.426;2022-11-21T05:58:09;98461.66;;;-0.18;66.00
52745;BME280;38637;49.984;20.426;2022-11-21T06:00:35;98435.13;;;-0.33;66.03
52745;BME280;38637;49.984;20.426;2022-11-21T06:03:00;98462.75;;;-0.26;65.94
52745;BME280;38637;49.984;20.426;2022-11-21T06:05:44;98455.31;;;-0.24;65.95
52745;BME280;38637;49.984;20.426;2022-11-21T06:08:09;98454.25;;;-0.23;66.16
52745;BME280;38637;49.984;20.426;2022-11-21T06:10:35;98452.63;;;-0.24;66.58
52745;BME280;38637;49.984;20.426;2022-11-21T06:13:01;98449.53;;;-0.21;66.45
52745;BME280;38637;49.984;20.426;2022-11-21T06:15:27;98442.47;;;-0.22;66.58
52745;BME280;38637;49.984;20.426;2022-11-21T06:17:52;98449.09;;;-0.18;66.47
52745;BME280;38637;49.984;20.426;2022-11-21T06:20:17;98445.78;;;-0.20;66.60
52745;BME280;38637;49.984;20.426;2022-11-21T06:22:42;98431.59;;;-0.27;66.84
52745;BME280;38637;49.984;20.426;2022-11-21T06:25:08;98438.78;;;-0.21;67.53
52745;BME280;38637;49.984;20.426;2022-11-21T06:27:33;98449.47;;;-0.14;67.56
52745;BME280;38637;49.984;20.426;2022-11-21T06:29:59;98433.97;;;-0.12;67.98
52745;BME280;38637;49.984;20.426;2022-11-21T06:32:24;98435.00;;;-0.13;68.80
52745;BME280;38637;49.984;20.426;2022-11-21T06:34:49;98439.50;;;-0.07;69.55
52745;BME280;38637;49.984;20.426;2022-11-21T06:37:14;98447.94;;;-0.04;70.03
52745;BME280;38637;49.984;20.426;2022-11-21T06:39:40;98442.16;;;-0.01;70.66
52745;BME280;38637;49.984;20.426;2022-11-21T06:42:05;98441.50;;;0.04;70.97
52745;BME280;38637;49.984;20.426;2022-11-21T06:44:31;98432.81;;;0.09;71.29
52745;BME280;38637;49.984;20.426;2022-11-21T06:46:56;98437.72;;;0.12;71.52
52745;BME280;38637;49.984;20.426;2022-11-21T06:49:21;98433.16;;;0.19;71.56
52745;BME280;38637;49.984;20.426;2022-11-21T06:51:47;98427.75;;;0.26;71.52
52745;BME280;38637;49.984;20.426;2022-11-21T06:54:12;98431.22;;;0.26;71.50
52745;BME280;38637;49.984;20.426;2022-11-21T06:56:37;98422.19;;;0.20;71.59
52745;BME280;38637;49.984;20.426;2022-11-21T06:59:03;98436.34;;;0.34;71.78
52745;BME280;38637;49.984;20.426;2022-11-21T07:01:28;98439.63;;;0.36;71.63
52745;BME280;38637;49.984;20.426;2022-11-21T07:03:54;98433.00;;;0.39;71.61
52745;BME280;38637;49.984;20.426;2022-11-21T07:06:20;98426.19;;;0.36;72.25
52745;BME280;38637;49.984;20.426;2022-11-21T07:08:45;98430.47;;;0.44;72.67
52745;BME280;38637;49.984;20.426;2022-11-21T07:11:12;98430.84;;;0.48;72.72
52745;BME280;38637;49.984;20.426;2022-11-21T07:13:38;98417.00;;;0.51;72.94
52745;BME280;38637;49.984;20.426;2022-11-21T07:16:08;98423.72;;;0.60;73.05
52745;BME280;38637;49.984;20.426;2022-11-21T07:18:34;98422.22;;;0.64;73.41
52745;BME280;38637;49.984;20.426;2022-11-21T07:21:02;98420.31;;;0.71;73.38
52745;BME280;38637;49.984;20.426;2022-11-21T07:23:28;98420.91;;;0.73;73.64
52745;BME280;38637;49.984;20.426;2022-11-21T07:25:54;98424.19;;;0.75;73.44
52745;BME280;38637;49.984;20.426;2022-11-21T07:28:19;98420.88;;;0.80;73.87
52745;BME280;38637;49.984;20.426;2022-11-21T07:30:45;98421.00;;;0.85;74.10
52745;BME280;38637;49.984;20.426;2022-11-21T07:33:10;98413.31;;;0.88;74.22
52745;BME280;38637;49.984;20.426;2022-11-21T07:35:36;98372.34;;;0.75;74.25
52745;BME280;38637;49.984;20.426;2022-11-21T07:38:02;98410.72;;;1.00;74.47
52745;BME280;38637;49.984;20.426;2022-11-21T07:40:28;98406.56;;;1.04;74.17
52745;BME280;38637;49.984;20.426;2022-11-21T07:42:53;98404.81;;;1.10;74.17
52745;BME280;38637;49.984;20.426;2022-11-21T07:45:19;98396.53;;;1.11;73.99
52745;BME280;38637;49.984;20.426;2022-11-21T07:47:44;98389.81;;;1.02;73.92
52745;BME280;38637;49.984;20.426;2022-11-21T07:50:10;98404.97;;;1.15;74.36
52745;BME280;38637;49.984;20.426;2022-11-21T07:52:36;98403.69;;;1.18;74.53
52745;BME280;38637;49.984;20.426;2022-11-21T07:55:02;98400.78;;;1.19;74.86
52745;BME280;38637;49.984;20.426;2022-11-21T07:57:29;98396.97;;;1.27;74.55
52745;BME280;38637;49.984;20.426;2022-11-21T07:59:54;98395.25;;;1.32;74.84
52745;BME280;38637;49.984;20.426;2022-11-21T08:02:24;98397.25;;;1.37;74.77
52745;BME280;38637;49.984;20.426;2022-11-21T08:04:50;98386.28;;;1.38;74.88
52745;BME280;38637;49.984;20.426;2022-11-21T08:07:18;98381.94;;;1.37;74.85
52745;BME280;38637;49.984;20.426;2022-11-21T08:09:44;98385.81;;;1.42;75.11
52745;BME280;38637;49.984;20.426;2022-11-21T08:12:09;98364.59;;;1.33;75.22
52745;BME280;38637;49.984;20.426;2022-11-21T08:14:35;98373.34;;;1.47;75.20
52745;BME280;38637;49.984;20.426;2022-11-21T08:17:01;98345.78;;;1.33;75.81
52745;BME280;38637;49.984;20.426;2022-11-21T08:19:26;98371.59;;;1.53;75.54
52745;BME280;38637;49.984;20.426;2022-11-21T08:21:51;98369.28;;;1.56;75.52
52745;BME280;38637;49.984;20.426;2022-11-21T08:24:16;98375.03;;;1.60;75.60
52745;BME280;38637;49.984;20.426;2022-11-21T08:26:43;98378.69;;;1.66;75.88
52745;BME280;38637;49.984;20.426;2022-11-21T08:29:09;98386.16;;;1.64;76.11
52745;BME280;38637;49.984;20.426;2022-11-21T08:31:35;98377.63;;;1.67;76.14
52745;BME280;38637;49.984;20.426;2022-11-21T08:34:01;98374.94;;;1.67;76.30
52745;BME280;38637;49.984;20.426;2022-11-21T08:36:26;98372.59;;;1.70;76.33
52745;BME280;38637;49.984;20.426;2022-11-21T08:38:51;98384.22;;;1.82;76.62
52745;BME280;38637;49.984;20.426;2022-11-21T08:41:17;98379.09;;;1.93;76.63
52745;BME280;38637;49.984;20.426;2022-11-21T08:44:01;98383.56;;;1.99;76.54
52745;BME280;38637;49.984;20.426;2022-11-21T08:46:26;98386.38;;;2.04;76.28
52745;BME280;38637;49.984;20.426;2022-11-21T08:48:55;98372.78;;;1.99;76.04
52745;BME280;38637;49.984;20.426;2022-11-21T08:51:21;98387.56;;;2.08;76.18
52745;BME280;38637;49.984;20.426;2022-11-21T08:53:47;98371.16;;;1.98;76.33
52745;BME280;38637;49.984;20.426;2022-11-21T08:56:12;98395.78;;;2.13;76.45
52745;BME280;38637;49.984;20.426;2022-11-21T08:58:38;98374.09;;;2.08;76.23
52745;BME280;38637;49.984;20.426;2022-11-21T09:01:03;98381.16;;;2.21;76.88
52745;BME280;38637;49.984;20.426;2022-11-21T09:03:29;98376.47;;;2.28;77.13
52745;BME280;38637;49.984;20.426;2022-11-21T09:05:55;98360.09;;;2.18;77.14
52745;BME280;38637;49.984;20.426;2022-11-21T09:08:21;98382.56;;;2.35;77.23
52745;BME280;38637;49.984;20.426;2022-11-21T09:10:46;98382.56;;;2.35;77.03
52745;BME280;38637;49.984;20.426;2022-11-21T09:13:11;98378.47;;;2.33;77.62
52745;BME280;38637;49.984;20.426;2022-11-21T09:15:37;98371.31;;;2.38;77.43
52745;BME280;38637;49.984;20.426;2022-11-21T09:18:20;98384.94;;;2.43;77.25
52745;BME280;38637;49.984;20.426;2022-11-21T09:20:46;98370.75;;;2.36;77.56
52745;BME280;38637;49.984;20.426;2022-11-21T09:23:13;98387.50;;;2.50;77.38
52745;BME280;38637;49.984;20.426;2022-11-21T09:25:39;98374.50;;;2.47;77.49
52745;BME280;38637;49.984;20.426;2022-11-21T09:28:06;98379.41;;;2.50;77.75
52745;BME280;38637;49.984;20.426;2022-11-21T09:30:32;98385.97;;;2.54;78.09
52745;BME280;38637;49.984;20.426;2022-11-21T09:33:05;98383.88;;;2.56;77.86
52745;BME280;38637;49.984;20.426;2022-11-21T09:35:30;98378.59;;;2.61;78.00
52745;BME280;38637;49.984;20.426;2022-11-21T09:37:56;98383.06;;;2.67;78.35
52745;BME280;38637;49.984;20.426;2022-11-21T09:40:22;98371.81;;;2.70;78.18
52745;BME280;38637;49.984;20.426;2022-11-21T09:45:33;98352.00;;;2.65;78.68
52745;BME280;38637;49.984;20.426;2022-11-21T09:48:03;98367.56;;;2.86;78.18
52745;BME280;38637;49.984;20.426;2022-11-21T09:53:27;98360.63;;;3.02;78.72
52745;BME280;38637;49.984;20.426;2022-11-21T09:56:00;98331.69;;;2.97;78.06
52745;BME280;38637;49.984;20.426;2022-11-21T09:58:38;98346.31;;;3.13;77.94
52745;BME280;38637;49.984;20.426;2022-11-21T10:01:04;98342.31;;;3.16;78.62
52745;BME280;38637;49.984;20.426;2022-11-21T10:03:41;98334.34;;;3.09;78.15
52745;BME280;38637;49.984;20.426;2022-11-21T10:06:17;98332.56;;;3.15;78.26
52745;BME280;38637;49.984;20.426;2022-11-21T10:25:27;98318.69;;;3.52;79.55
52745;BME280;38637;49.984;20.426;2022-11-21T10:30:44;98320.47;;;3.75;79.00
52745;BME280;38637;49.984;20.426;2022-11-21T10:33:37;98303.78;;;3.78;78.55
52745;BME280;38637;49.984;20.426;2022-11-21T10:38:46;98313.78;;;3.94;78.38
52745;BME280;38637;49.984;20.426;2022-11-21T10:41:19;98299.28;;;3.83;78.98
52745;BME280;38637;49.984;20.426;2022-11-21T10:46:37;98298.41;;;4.11;78.84
52745;BME280;38637;49.984;20.426;2022-11-21T10:49:03;98307.47;;;4.22;78.92
52745;BME280;38637;49.984;20.426;2022-11-21T10:54:19;98298.06;;;4.25;78.77
52745;BME280;38637;49.984;20.426;2022-11-21T10:57:06;98304.63;;;4.29;78.71
52745;BME280;38637;49.984;20.426;2022-11-21T10:59:35;98296.03;;;4.32;78.77
52745;BME280;38637;49.984;20.426;2022-11-21T11:02:21;98285.13;;;4.27;78.90
52745;BME280;38637;49.984;20.426;2022-11-21T11:04:47;98296.06;;;4.37;79.41
52745;BME280;38637;49.984;20.426;2022-11-21T11:07:23;98294.75;;;4.40;79.02
52745;BME280;38637;49.984;20.426;2022-11-21T11:09:49;98307.19;;;4.41;79.34
52745;BME280;38637;49.984;20.426;2022-11-21T11:12:24;98306.72;;;4.44;79.40
52745;BME280;38637;49.984;20.426;2022-11-21T11:15:24;98298.09;;;4.47;78.79
52745;BME280;38637;49.984;20.426;2022-11-21T11:17:58;98303.09;;;4.55;78.69
52745;BME280;38637;49.984;20.426;2022-11-21T11:20:35;98281.56;;;4.43;79.03
52745;BME280;38637;49.984;20.426;2022-11-21T11:23:34;98293.16;;;4.60;79.19
52745;BME280;38637;49.984;20.426;2022-11-21T11:25:59;98275.56;;;4.58;78.17
52745;BME280;38637;49.984;20.426;2022-11-21T11:28:26;98291.06;;;4.63;78.69
52745;BME280;38637;49.984;20.426;2022-11-21T11:30:57;98269.56;;;4.56;78.06
52745;BME280;38637;49.984;20.426;2022-11-21T11:33:40;98279.47;;;4.67;77.97
52745;BME280;38637;49.984;20.426;2022-11-21T11:36:12;98280.28;;;4.68;77.32
52745;BME280;38637;49.984;20.426;2022-11-21T11:38:42;98274.31;;;4.66;77.58
52745;BME280;38637;49.984;20.426;2022-11-21T11:41:29;98264.75;;;4.58;77.33
52745;BME280;38637;49.984;20.426;2022-11-21T11:44:27;98278.56;;;4.61;78.29
52745;BME280;38637;49.984;20.426;2022-11-21T11:47:21;98261.66;;;4.49;77.92
52745;BME280;38637;49.984;20.426;2022-11-21T11:53:10;98269.34;;;4.57;78.08
52745;BME280;38637;49.984;20.426;2022-11-21T11:55:59;98259.09;;;4.59;78.27
52745;BME280;38637;49.984;20.426;2022-11-21T11:58:30;98249.53;;;4.52;78.50
52745;BME280;38637;49.984;20.426;2022-11-21T12:04:01;98256.06;;;4.56;78.34
52745;BME280;38637;49.984;20.426;2022-11-21T12:06:36;98263.13;;;4.57;78.22
52745;BME280;38637;49.984;20.426;2022-11-21T12:11:49;98258.53;;;4.57;78.22
52745;BME280;38637;49.984;20.426;2022-11-21T12:17:40;98249.34;;;4.58;78.68
52745;BME280;38637;49.984;20.426;2022-11-21T12:20:28;98247.13;;;4.55;78.64
52745;BME280;38637;49.984;20.426;2022-11-21T12:22:55;98248.34;;;4.65;78.32
52745;BME280;38637;49.984;20.426;2022-11-21T12:25:35;98241.38;;;4.69;77.89
52745;BME280;38637;49.984;20.426;2022-11-21T12:28:09;98238.09;;;4.67;77.44
52745;BME280;38637;49.984;20.426;2022-11-21T12:34:01;98243.59;;;4.72;78.03
52745;BME280;38637;49.984;20.426;2022-11-21T12:36:37;98232.41;;;4.68;77.88
52745;BME280;38637;49.984;20.426;2022-11-21T12:39:29;98236.78;;;4.69;78.22
52745;BME280;38637;49.984;20.426;2022-11-21T12:42:27;98236.28;;;4.72;78.32
52745;BME280;38637;49.984;20.426;2022-11-21T12:45:31;98242.22;;;4.74;78.43
52745;BME280;38637;49.984;20.426;2022-11-21T12:48:10;98234.69;;;4.76;78.17
52745;BME280;38637;49.984;20.426;2022-11-21T12:57:15;98227.69;;;4.80;78.69
52745;BME280;38637;49.984;20.426;2022-11-21T13:02:37;98232.06;;;4.81;78.56
52745;BME280;38637;49.984;20.426;2022-11-21T13:05:07;98237.22;;;4.83;78.78
52745;BME280;38637;49.984;20.426;2022-11-21T13:07:34;98216.69;;;4.65;78.90
52745;BME280;38637;49.984;20.426;2022-11-21T13:10:01;98236.19;;;4.89;78.51
52745;BME280;38637;49.984;20.426;2022-11-21T13:15:39;98235.38;;;4.89;78.77
52745;BME280;38637;49.984;20.426;2022-11-21T13:18:21;98232.88;;;4.82;79.02
52745;BME280;38637;49.984;20.426;2022-11-21T13:20:49;98245.38;;;4.88;78.90
52745;BME280;38637;49.984;20.426;2022-11-21T13:23:41;98231.06;;;4.88;79.32
52745;BME280;38637;49.984;20.426;2022-11-21T13:29:11;98228.09;;;4.89;79.25
52745;BME280;38637;49.984;20.426;2022-11-21T13:31:38;98226.19;;;4.90;79.62
52745;BME280;38637;49.984;20.426;2022-11-21T13:36:55;98234.50;;;4.83;80.07
52745;BME280;38637;49.984;20.426;2022-11-21T13:39:27;98245.78;;;4.75;81.02
52745;BME280;38637;49.984;20.426;2022-11-21T13:44:39;98224.88;;;4.70;81.22
52745;BME280;38637;49.984;20.426;2022-11-21T13:58:00;98233.75;;;4.88;80.90
52745;BME280;38637;49.984;20.426;2022-11-21T14:00:46;98228.09;;;4.89;80.98
52745;BME280;38637;49.984;20.426;2022-11-21T14:06:41;98219.97;;;4.89;81.62
52745;BME280;38637;49.984;20.426;2022-11-21T14:14:28;98215.38;;;4.90;81.30
52745;BME280;38637;49.984;20.426;2022-11-21T14:20:00;98215.88;;;4.87;81.17
52745;BME280;38637;49.984;20.426;2022-11-21T14:25:21;98219.09;;;4.83;81.31
52745;BME280;38637;49.984;20.426;2022-11-21T14:27:50;98223.19;;;4.86;80.67
52745;BME280;38637;49.984;20.426;2022-11-21T14:30:32;98214.53;;;4.84;81.14
52745;BME280;38637;49.984;20.426;2022-11-21T14:33:25;98211.25;;;4.82;81.48
52745;BME280;38637;49.984;20.426;2022-11-21T14:36:17;98209.63;;;4.81;81.41
52745;BME280;38637;49.984;20.426;2022-11-21T14:38:58;98193.53;;;4.69;81.00
52745;BME280;38637;49.984;20.426;2022-11-21T14:41:27;98216.56;;;4.77;81.13
52745;BME280;38637;49.984;20.426;2022-11-21T14:46:29;98214.88;;;4.71;81.57
52745;BME280;38637;49.984;20.426;2022-11-21T14:48:55;98221.44;;;4.75;80.96